sensor_id;sensor_type;location;lat;lon;timestamp;pressure;altitude;pressure_sealevel;temperature;humidity
34177;BME280;20450;49.074;9.158;2022-10-16T00:01:38;99371.47;;;17.20;100.00
34177;BME280;20450;49.074;9.158;2022-10-16T00:04:05;99369.50;;;17.14;100.00
34177;BME280;20450;49.074;9.158;2022-10-16T00:06:32;99380.31;;;17.11;100.00
34177;BME280;20450;49.074;9.158;2022-10-16T00:08:59;99366.72;;;17.16;100.00
34177;BME280;20450;49.074;9.158;2022-10-16T00:11:28;99366.22;;;17.12;100.00
34177;BME280;20450;49.074;9.158;2022-10-16T00:13:59;99355.19;;;17.17;100.00
34177;BME280;20450;49.074;9.158;2022-10-16T00:16:27;99349.56;;;17.12;100.00
34177;BME280;20450;49.074;9.158;2022-10-16T00:18:55;99349.06;;;17.08;100.00
34177;BME280;20450;49.074;9.158;2022-10-16T00:21:24;99344.75;;;16.99;100.00
34177;BME280;20450;49.074;9.158;2022-10-16T00:24:11;99345.56;;;16.92;100.00
34177;BME280;20450;49.074;9.158;2022-10-16T00:26:39;99344.09;;;16.89;100.00
34177;BME280;20450;49.074;9.158;2022-10-16T00:29:08;99347.84;;;16.87;100.00
34177;BME280;20450;49.074;9.158;2022-10-16T00:31:35;99362.66;;;16.88;100.00
34177;BME280;20450;49.074;9.158;2022-10-16T00:34:02;99362.66;;;16.88;100.00
34177;BME280;20450;49.074;9.158;2022-10-16T00:36:29;99365.63;;;16.93;100.00
34177;BME280;20450;49.074;9.158;2022-10-16T00:38:58;99374.53;;;17.00;100.00
34177;BME280;20450;49.074;9.158;2022-10-16T00:41:27;99378.81;;;17.01;100.00
34177;BME280;20450;49.074;9.158;2022-10-16T00:43:55;99386.88;;;16.99;100.00
34177;BME280;20450;49.074;9.158;2022-10-16T00:46:27;99375.53;;;16.99;100.00
34177;BME280;20450;49.074;9.158;2022-10-16T00:49:00;99363.53;;;17.04;100.00
34177;BME280;20450;49.074;9.158;2022-10-16T00:51:32;99368.00;;;17.04;100.00
34177;BME280;20450;49.074;9.158;2022-10-16T00:54:02;99370.13;;;17.08;100.00
34177;BME280;20450;49.074;9.158;2022-10-16T00:56:34;99375.56;;;17.07;100.00
34177;BME280;20450;49.074;9.158;2022-10-16T00:59:03;99374.91;;;17.05;100.00
34177;BME280;20450;49.074;9.158;2022-10-16T01:01:38;99375.88;;;17.04;100.00
34177;BME280;20450;49.074;9.158;2022-10-16T01:04:04;99375.19;;;17.02;100.00
34177;BME280;20450;49.074;9.158;2022-10-16T01:06:36;99367.78;;;16.97;100.00
34177;BME280;20450;49.074;9.158;2022-10-16T01:09:15;99366.94;;;16.97;100.00
34177;BME280;20450;49.074;9.158;2022-10-16T01:11:55;99371.06;;;16.99;100.00
34177;BME280;20450;49.074;9.158;2022-10-16T01:14:32;99372.91;;;16.99;100.00
34177;BME280;20450;49.074;9.158;2022-10-16T01:17:12;99369.91;;;16.94;100.00
34177;BME280;20450;49.074;9.158;2022-10-16T01:19:52;99370.91;;;16.93;100.00
34177;BME280;20450;49.074;9.158;2022-10-16T01:22:38;99360.38;;;16.93;100.00
34177;BME280;20450;49.074;9.158;2022-10-16T01:25:18;99353.13;;;16.95;100.00
34177;BME280;20450;49.074;9.158;2022-10-16T01:27:58;99363.66;;;16.95;100.00
34177;BME280;20450;49.074;9.158;2022-10-16T01:30:30;99369.44;;;16.98;100.00
34177;BME280;20450;49.074;9.158;2022-10-16T01:33:04;99367.63;;;16.99;100.00
34177;BME280;20450;49.074;9.158;2022-10-16T01:35:39;99371.91;;;17.00;100.00
34177;BME280;20450;49.074;9.158;2022-10-16T01:38:12;99373.19;;;16.96;100.00
34177;BME280;20450;49.074;9.158;2022-10-16T01:40:47;99380.09;;;16.97;100.00
34177;BME280;20450;49.074;9.158;2022-10-16T01:43:22;99371.41;;;16.96;100.00
34177;BME280;20450;49.074;9.158;2022-10-16T01:45:54;99391.31;;;16.99;100.00
34177;BME280;20450;49.074;9.158;2022-10-16T01:48:24;99391.69;;;17.04;100.00
34177;BME280;20450;49.074;9.158;2022-10-16T01:50:55;99373.56;;;17.01;100.00
34177;BME280;20450;49.074;9.158;2022-10-16T01:53:28;62450.84;;;-140.58;100.00
34177;BME280;20450;49.074;9.158;2022-10-16T01:55:58;62450.84;;;-140.58;100.00
34177;BME280;20450;49.074;9.158;2022-10-16T01:58:29;62450.84;;;-140.58;100.00
34177;BME280;20450;49.074;9.158;2022-10-16T02:01:03;62450.84;;;-140.58;100.00
34177;BME280;20450;49.074;9.158;2022-10-16T02:03:34;62450.84;;;-140.58;100.00
34177;BME280;20450;49.074;9.158;2022-10-16T02:06:04;62450.84;;;-140.58;100.00
34177;BME280;20450;49.074;9.158;2022-10-16T02:08:31;62450.84;;;-140.58;100.00
34177;BME280;20450;49.074;9.158;2022-10-16T02:11:00;62450.84;;;-140.58;100.00
34177;BME280;20450;49.074;9.158;2022-10-16T02:13:31;62450.84;;;-140.58;100.00
34177;BME280;20450;49.074;9.158;2022-10-16T02:16:04;62450.84;;;-140.58;100.00
34177;BME280;20450;49.074;9.158;2022-10-16T02:18:31;62450.84;;;-140.58;100.00
34177;BME280;20450;49.074;9.158;2022-10-16T02:21:02;62450.84;;;-140.58;100.00
34177;BME280;20450;49.074;9.158;2022-10-16T02:23:45;62450.84;;;-140.58;100.00
34177;BME280;20450;49.074;9.158;2022-10-16T02:26:23;62450.84;;;-140.58;100.00
34177;BME280;20450;49.074;9.158;2022-10-16T02:29:02;62450.84;;;-140.58;100.00
34177;BME280;20450;49.074;9.158;2022-10-16T02:31:35;62450.84;;;-140.58;100.00
34177;BME280;20450;49.074;9.158;2022-10-16T02:34:09;62450.84;;;-140.58;100.00
34177;BME280;20450;49.074;9.158;2022-10-16T02:36:40;62450.84;;;-140.58;100.00
34177;BME280;20450;49.074;9.158;2022-10-16T02:39:09;62450.84;;;-140.58;100.00
34177;BME280;20450;49.074;9.158;2022-10-16T02:41:38;62450.84;;;-140.58;100.00
34177;BME280;20450;49.074;9.158;2022-10-16T02:44:06;62450.84;;;-140.58;100.00
34177;BME280;20450;49.074;9.158;2022-10-16T02:46:33;62450.84;;;-140.58;100.00
34177;BME280;20450;49.074;9.158;2022-10-16T02:49:00;62450.84;;;-140.58;100.00
34177;BME280;20450;49.074;9.158;2022-10-16T02:51:26;62450.84;;;-140.58;100.00
34177;BME280;20450;49.074;9.158;2022-10-16T02:53:53;62450.84;;;-140.58;100.00
34177;BME280;20450;49.074;9.158;2022-10-16T02:56:20;62450.84;;;-140.58;100.00
34177;BME280;20450;49.074;9.158;2022-10-16T02:58:47;62450.84;;;-140.58;100.00
34177;BME280;20450;49.074;9.158;2022-10-16T03:01:15;62450.84;;;-140.58;100.00
34177;BME280;20450;49.074;9.158;2022-10-16T03:03:42;62450.84;;;-140.58;100.00
34177;BME280;20450;49.074;9.158;2022-10-16T03:06:09;62450.84;;;-140.58;100.00
34177;BME280;20450;49.074;9.158;2022-10-16T03:08:36;62450.84;;;-140.58;100.00
34177;BME280;20450;49.074;9.158;2022-10-16T03:11:03;62450.84;;;-140.58;100.00
34177;BME280;20450;49.074;9.158;2022-10-16T03:13:30;62450.84;;;-140.58;100.00
34177;BME280;20450;49.074;9.158;2022-10-16T03:15:57;62450.84;;;-140.58;100.00
34177;BME280;20450;49.074;9.158;2022-10-16T03:18:25;62450.84;;;-140.58;100.00
34177;BME280;20450;49.074;9.158;2022-10-16T03:20:52;62450.84;;;-140.58;100.00
34177;BME280;20450;49.074;9.158;2022-10-16T03:23:18;62450.84;;;-140.58;100.00
34177;BME280;20450;49.074;9.158;2022-10-16T03:25:45;62450.84;;;-140.58;100.00
34177;BME280;20450;49.074;9.158;2022-10-16T03:28:14;62450.84;;;-140.58;100.00
34177;BME280;20450;49.074;9.158;2022-10-16T03:30:40;62450.84;;;-140.58;100.00
34177;BME280;20450;49.074;9.158;2022-10-16T03:33:08;62450.84;;;-140.58;100.00
34177;BME280;20450;49.074;9.158;2022-10-16T03:35:37;62450.84;;;-140.58;100.00
34177;BME280;20450;49.074;9.158;2022-10-16T03:38:04;62450.84;;;-140.58;100.00
34177;BME280;20450;49.074;9.158;2022-10-16T03:40:31;62450.84;;;-140.58;100.00
34177;BME280;20450;49.074;9.158;2022-10-16T03:42:57;62450.84;;;-140.58;100.00
34177;BME280;20450;49.074;9.158;2022-10-16T03:45:25;62450.84;;;-140.58;100.00
34177;BME280;20450;49.074;9.158;2022-10-16T03:47:51;62450.84;;;-140.58;100.00
34177;BME280;20450;49.074;9.158;2022-10-16T03:50:18;62450.84;;;-140.58;100.00
34177;BME280;20450;49.074;9.158;2022-10-16T03:52:47;62450.84;;;-140.58;100.00
34177;BME280;20450;49.074;9.158;2022-10-16T03:55:13;62450.84;;;-140.58;100.00
34177;BME280;20450;49.074;9.158;2022-10-16T03:57:40;62450.84;;;-140.58;100.00
34177;BME280;20450;49.074;9.158;2022-10-16T04:00:09;62450.84;;;-140.58;100.00
34177;BME280;20450;49.074;9.158;2022-10-16T04:02:39;62450.84;;;-140.58;100.00
34177;BME280;20450;49.074;9.158;2022-10-16T04:05:07;62450.84;;;-140.58;100.00
34177;BME280;20450;49.074;9.158;2022-10-16T04:07:34;62450.84;;;-140.58;100.00
34177;BME280;20450;49.074;9.158;2022-10-16T04:10:04;62450.84;;;-140.58;100.00
34177;BME280;20450;49.074;9.158;2022-10-16T04:12:32;62450.84;;;-140.58;100.00
34177;BME280;20450;49.074;9.158;2022-10-16T04:14:59;62450.84;;;-140.58;100.00
34177;BME280;20450;49.074;9.158;2022-10-16T04:17:25;62450.84;;;-140.58;100.00
34177;BME280;20450;49.074;9.158;2022-10-16T04:19:53;62450.84;;;-140.58;100.00
34177;BME280;20450;49.074;9.158;2022-10-16T04:22:20;62450.84;;;-140.58;100.00
34177;BME280;20450;49.074;9.158;2022-10-16T04:24:47;62450.84;;;-140.58;100.00
34177;BME280;20450;49.074;9.158;2022-10-16T04:27:16;62450.84;;;-140.58;100.00
34177;BME280;20450;49.074;9.158;2022-10-16T04:29:43;62450.84;;;-140.58;100.00
34177;BME280;20450;49.074;9.158;2022-10-16T04:32:10;62450.84;;;-140.58;100.00
34177;BME280;20450;49.074;9.158;2022-10-16T04:34:38;62450.84;;;-140.58;100.00
34177;BME280;20450;49.074;9.158;2022-10-16T04:37:05;62450.84;;;-140.58;100.00
34177;BME280;20450;49.074;9.158;2022-10-16T04:39:32;62450.84;;;-140.58;100.00
34177;BME280;20450;49.074;9.158;2022-10-16T04:41:59;62450.84;;;-140.58;100.00
34177;BME280;20450;49.074;9.158;2022-10-16T04:44:28;62450.84;;;-140.58;100.00
34177;BME280;20450;49.074;9.158;2022-10-16T04:46:55;62450.84;;;-140.58;100.00
34177;BME280;20450;49.074;9.158;2022-10-16T04:49:22;62450.84;;;-140.58;100.00
34177;BME280;20450;49.074;9.158;2022-10-16T04:51:49;62450.84;;;-140.58;100.00
34177;BME280;20450;49.074;9.158;2022-10-16T04:54:15;62450.84;;;-140.58;100.00
34177;BME280;20450;49.074;9.158;2022-10-16T04:56:42;62450.84;;;-140.58;100.00
34177;BME280;20450;49.074;9.158;2022-10-16T05:03:45;62450.84;;;-140.58;100.00
34177;BME280;20450;49.074;9.158;2022-10-16T05:07:14;62450.84;;;-140.58;100.00
34177;BME280;20450;49.074;9.158;2022-10-16T05:10:54;62450.84;;;-140.58;100.00
34177;BME280;20450;49.074;9.158;2022-10-16T05:32:59;62450.84;;;-140.58;100.00
34177;BME280;20450;49.074;9.158;2022-10-16T05:35:26;62450.84;;;-140.58;100.00
34177;BME280;20450;49.074;9.158;2022-10-16T05:37:56;62450.84;;;-140.58;100.00
34177;BME280;20450;49.074;9.158;2022-10-16T05:40:39;62450.84;;;-140.58;100.00
34177;BME280;20450;49.074;9.158;2022-10-16T05:43:33;62450.84;;;-140.58;100.00
34177;BME280;20450;49.074;9.158;2022-10-16T06:03:52;62450.84;;;-140.58;100.00
34177;BME280;20450;49.074;9.158;2022-10-16T06:06:21;62450.84;;;-140.58;100.00
34177;BME280;20450;49.074;9.158;2022-10-16T06:08:49;62450.84;;;-140.58;100.00
34177;BME280;20450;49.074;9.158;2022-10-16T06:11:28;62450.84;;;-140.58;100.00
34177;BME280;20450;49.074;9.158;2022-10-16T06:14:09;62450.84;;;-140.58;100.00
34177;BME280;20450;49.074;9.158;2022-10-16T06:20:51;62450.84;;;-140.58;100.00
34177;BME280;20450;49.074;9.158;2022-10-16T06:23:18;62450.84;;;-140.58;100.00
34177;BME280;20450;49.074;9.158;2022-10-16T06:25:45;62450.84;;;-140.58;100.00
34177;BME280;20450;49.074;9.158;2022-10-16T06:28:13;62450.84;;;-140.58;100.00
34177;BME280;20450;49.074;9.158;2022-10-16T06:30:40;62450.84;;;-140.58;100.00
34177;BME280;20450;49.074;9.158;2022-10-16T06:33:08;62450.84;;;-140.58;100.00
34177;BME280;20450;49.074;9.158;2022-10-16T06:35:35;62450.84;;;-140.58;100.00
34177;BME280;20450;49.074;9.158;2022-10-16T06:38:03;62450.84;;;-140.58;100.00
34177;BME280;20450;49.074;9.158;2022-10-16T06:40:30;62450.84;;;-140.58;100.00
34177;BME280;20450;49.074;9.158;2022-10-16T06:42:57;62450.84;;;-140.58;100.00
34177;BME280;20450;49.074;9.158;2022-10-16T06:45:25;62450.84;;;-140.58;100.00
34177;BME280;20450;49.074;9.158;2022-10-16T06:47:52;62450.84;;;-140.58;100.00
34177;BME280;20450;49.074;9.158;2022-10-16T06:50:19;62450.84;;;-140.58;100.00
34177;BME280;20450;49.074;9.158;2022-10-16T06:52:46;62450.84;;;-140.58;100.00
34177;BME280;20450;49.074;9.158;2022-10-16T06:55:14;62450.84;;;-140.58;100.00
34177;BME280;20450;49.074;9.158;2022-10-16T06:57:41;62450.84;;;-140.58;100.00
34177;BME280;20450;49.074;9.158;2022-10-16T07:00:09;62450.84;;;-140.58;100.00
34177;BME280;20450;49.074;9.158;2022-10-16T07:02:39;62450.84;;;-140.58;100.00
34177;BME280;20450;49.074;9.158;2022-10-16T07:05:06;62450.84;;;-140.58;100.00
34177;BME280;20450;49.074;9.158;2022-10-16T07:07:34;62450.84;;;-140.58;100.00
34177;BME280;20450;49.074;9.158;2022-10-16T07:10:00;62450.84;;;-140.58;100.00
34177;BME280;20450;49.074;9.158;2022-10-16T07:12:29;62450.84;;;-140.58;100.00
34177;BME280;20450;49.074;9.158;2022-10-16T07:14:56;62450.84;;;-140.58;100.00
34177;BME280;20450;49.074;9.158;2022-10-16T07:17:23;62450.84;;;-140.58;100.00
34177;BME280;20450;49.074;9.158;2022-10-16T07:19:49;62450.84;;;-140.58;100.00
34177;BME280;20450;49.074;9.158;2022-10-16T07:22:16;62450.84;;;-140.58;100.00
34177;BME280;20450;49.074;9.158;2022-10-16T07:24:43;62450.84;;;-140.58;100.00
34177;BME280;20450;49.074;9.158;2022-10-16T07:27:16;62450.84;;;-140.58;100.00
34177;BME280;20450;49.074;9.158;2022-10-16T07:29:47;62450.84;;;-140.58;100.00
34177;BME280;20450;49.074;9.158;2022-10-16T07:32:20;62450.84;;;-140.58;100.00
34177;BME280;20450;49.074;9.158;2022-10-16T07:38:15;62450.84;;;-140.58;100.00
34177;BME280;20450;49.074;9.158;2022-10-16T07:40:45;62450.84;;;-140.58;100.00
34177;BME280;20450;49.074;9.158;2022-10-16T07:43:12;62450.84;;;-140.58;100.00
34177;BME280;20450;49.074;9.158;2022-10-16T07:45:48;62450.84;;;-140.58;100.00
34177;BME280;20450;49.074;9.158;2022-10-16T07:48:15;62450.84;;;-140.58;100.00
34177;BME280;20450;49.074;9.158;2022-10-16T07:50:43;62450.84;;;-140.58;100.00
34177;BME280;20450;49.074;9.158;2022-10-16T07:53:11;62450.84;;;-140.58;100.00
34177;BME280;20450;49.074;9.158;2022-10-16T07:55:39;62450.84;;;-140.58;100.00
34177;BME280;20450;49.074;9.158;2022-10-16T07:58:06;62450.84;;;-140.58;100.00
34177;BME280;20450;49.074;9.158;2022-10-16T08:00:33;62450.84;;;-140.58;100.00
34177;BME280;20450;49.074;9.158;2022-10-16T08:03:03;62450.84;;;-140.58;100.00
34177;BME280;20450;49.074;9.158;2022-10-16T08:05:32;62450.84;;;-140.58;100.00
34177;BME280;20450;49.074;9.158;2022-10-16T08:07:59;62450.84;;;-140.58;100.00
34177;BME280;20450;49.074;9.158;2022-10-16T08:10:28;62450.84;;;-140.58;100.00
34177;BME280;20450;49.074;9.158;2022-10-16T08:12:55;62450.84;;;-140.58;100.00
34177;BME280;20450;49.074;9.158;2022-10-16T08:15:23;62450.84;;;-140.58;100.00
34177;BME280;20450;49.074;9.158;2022-10-16T08:17:58;62450.84;;;-140.58;100.00
34177;BME280;20450;49.074;9.158;2022-10-16T08:20:29;62450.84;;;-140.58;100.00
34177;BME280;20450;49.074;9.158;2022-10-16T08:22:56;62450.84;;;-140.58;100.00
34177;BME280;20450;49.074;9.158;2022-10-16T08:25:24;62450.84;;;-140.58;100.00
34177;BME280;20450;49.074;9.158;2022-10-16T08:27:51;62450.84;;;-140.58;100.00
34177;BME280;20450;49.074;9.158;2022-10-16T08:30:19;62450.84;;;-140.58;100.00
34177;BME280;20450;49.074;9.158;2022-10-16T08:32:47;62450.84;;;-140.58;100.00
34177;BME280;20450;49.074;9.158;2022-10-16T08:35:15;62450.84;;;-140.58;100.00
34177;BME280;20450;49.074;9.158;2022-10-16T08:37:44;62450.84;;;-140.58;100.00
34177;BME280;20450;49.074;9.158;2022-10-16T08:40:17;62450.84;;;-140.58;100.00
34177;BME280;20450;49.074;9.158;2022-10-16T08:42:56;62450.84;;;-140.58;100.00
34177;BME280;20450;49.074;9.158;2022-10-16T08:45:49;62450.84;;;-140.58;100.00
34177;BME280;20450;49.074;9.158;2022-10-16T08:48:36;62450.84;;;-140.58;100.00
34177;BME280;20450;49.074;9.158;2022-10-16T08:51:18;62450.84;;;-140.58;100.00
34177;BME280;20450;49.074;9.158;2022-10-16T08:53:53;62450.84;;;-140.58;100.00
34177;BME280;20450;49.074;9.158;2022-10-16T08:56:22;62450.84;;;-140.58;100.00
34177;BME280;20450;49.074;9.158;2022-10-16T08:58:51;62450.84;;;-140.58;100.00
34177;BME280;20450;49.074;9.158;2022-10-16T09:01:34;62450.84;;;-140.58;100.00
34177;BME280;20450;49.074;9.158;2022-10-16T09:07:30;62450.84;;;-140.58;100.00
34177;BME280;20450;49.074;9.158;2022-10-16T09:10:19;62450.84;;;-140.58;100.00
34177;BME280;20450;49.074;9.158;2022-10-16T09:13:03;62450.84;;;-140.58;100.00
34177;BME280;20450;49.074;9.158;2022-10-16T09:15:46;62450.84;;;-140.58;100.00
34177;BME280;20450;49.074;9.158;2022-10-16T09:18:25;62450.84;;;-140.58;100.00
34177;BME280;20450;49.074;9.158;2022-10-16T09:21:06;62450.84;;;-140.58;100.00
34177;BME280;20450;49.074;9.158;2022-10-16T09:23:39;62450.84;;;-140.58;100.00
34177;BME280;20450;49.074;9.158;2022-10-16T09:26:11;62450.84;;;-140.58;100.00
34177;BME280;20450;49.074;9.158;2022-10-16T09:28:40;62450.84;;;-140.58;100.00
34177;BME280;20450;49.074;9.158;2022-10-16T09:31:14;62450.84;;;-140.58;100.00
34177;BME280;20450;49.074;9.158;2022-10-16T09:33:47;62450.84;;;-140.58;100.00
34177;BME280;20450;49.074;9.158;2022-10-16T09:36:19;62450.84;;;-140.58;100.00
34177;BME280;20450;49.074;9.158;2022-10-16T09:38:47;62450.84;;;-140.58;100.00
34177;BME280;20450;49.074;9.158;2022-10-16T09:41:18;62450.84;;;-140.58;100.00
34177;BME280;20450;49.074;9.158;2022-10-16T09:43:49;62450.84;;;-140.58;100.00
34177;BME280;20450;49.074;9.158;2022-10-16T09:46:26;62450.84;;;-140.58;100.00
34177;BME280;20450;49.074;9.158;2022-10-16T09:48:57;62450.84;;;-140.58;100.00
34177;BME280;20450;49.074;9.158;2022-10-16T09:51:27;62450.84;;;-140.58;100.00
34177;BME280;20450;49.074;9.158;2022-10-16T09:53:57;62450.84;;;-140.58;100.00
34177;BME280;20450;49.074;9.158;2022-10-16T09:56:29;62450.84;;;-140.58;100.00
34177;BME280;20450;49.074;9.158;2022-10-16T09:58:59;62450.84;;;-140.58;100.00
34177;BME280;20450;49.074;9.158;2022-10-16T10:01:31;62450.84;;;-140.58;100.00
34177;BME280;20450;49.074;9.158;2022-10-16T10:04:04;62450.84;;;-140.58;100.00
34177;BME280;20450;49.074;9.158;2022-10-16T10:06:34;62450.84;;;-140.58;100.00
34177;BME280;20450;49.074;9.158;2022-10-16T10:09:06;62450.84;;;-140.58;100.00
34177;BME280;20450;49.074;9.158;2022-10-16T10:11:50;62450.84;;;-140.58;100.00
34177;BME280;20450;49.074;9.158;2022-10-16T10:14:22;62450.84;;;-140.58;100.00
34177;BME280;20450;49.074;9.158;2022-10-16T10:17:01;62450.84;;;-140.58;100.00
34177;BME280;20450;49.074;9.158;2022-10-16T10:19:38;62450.84;;;-140.58;100.00
34177;BME280;20450;49.074;9.158;2022-10-16T10:22:16;62450.84;;;-140.58;100.00
34177;BME280;20450;49.074;9.158;2022-10-16T10:24:54;62450.84;;;-140.58;100.00
34177;BME280;20450;49.074;9.158;2022-10-16T10:27:48;62450.84;;;-140.58;100.00
34177;BME280;20450;49.074;9.158;2022-10-16T10:30:27;62450.84;;;-140.58;100.00
34177;BME280;20450;49.074;9.158;2022-10-16T10:33:14;62450.84;;;-140.58;100.00
34177;BME280;20450;49.074;9.158;2022-10-16T10:35:56;62450.84;;;-140.58;100.00
34177;BME280;20450;49.074;9.158;2022-10-16T10:38:39;62450.84;;;-140.58;100.00
34177;BME280;20450;49.074;9.158;2022-10-16T10:41:36;62450.84;;;-140.58;100.00
34177;BME280;20450;49.074;9.158;2022-10-16T10:44:27;62450.84;;;-140.58;100.00
34177;BME280;20450;49.074;9.158;2022-10-16T10:47:18;62450.84;;;-140.58;100.00
34177;BME280;20450;49.074;9.158;2022-10-16T10:50:00;62450.84;;;-140.58;100.00
34177;BME280;20450;49.074;9.158;2022-10-16T10:52:47;62450.84;;;-140.58;100.00
34177;BME280;20450;49.074;9.158;2022-10-16T10:55:39;62450.84;;;-140.58;100.00
34177;BME280;20450;49.074;9.158;2022-10-16T11:01:31;62450.84;;;-140.58;100.00
34177;BME280;20450;49.074;9.158;2022-10-16T11:04:30;62450.84;;;-140.58;100.00
34177;BME280;20450;49.074;9.158;2022-10-16T11:07:15;62450.84;;;-140.58;100.00
34177;BME280;20450;49.074;9.158;2022-10-16T11:09:47;62450.84;;;-140.58;100.00
34177;BME280;20450;49.074;9.158;2022-10-16T11:12:19;62450.84;;;-140.58;100.00
34177;BME280;20450;49.074;9.158;2022-10-16T11:14:57;62450.84;;;-140.58;100.00
34177;BME280;20450;49.074;9.158;2022-10-16T11:17:38;62450.84;;;-140.58;100.00
34177;BME280;20450;49.074;9.158;2022-10-16T11:20:18;62450.84;;;-140.58;100.00
34177;BME280;20450;49.074;9.158;2022-10-16T11:22:52;62450.84;;;-140.58;100.00
34177;BME280;20450;49.074;9.158;2022-10-16T11:25:26;62450.84;;;-140.58;100.00
34177;BME280;20450;49.074;9.158;2022-10-16T11:28:00;62450.84;;;-140.58;100.00
34177;BME280;20450;49.074;9.158;2022-10-16T11:30:33;62450.84;;;-140.58;100.00
34177;BME280;20450;49.074;9.158;2022-10-16T11:33:23;62450.84;;;-140.58;100.00
34177;BME280;20450;49.074;9.158;2022-10-16T11:36:00;62450.84;;;-140.58;100.00
34177;BME280;20450;49.074;9.158;2022-10-16T11:38:41;62450.84;;;-140.58;100.00
34177;BME280;20450;49.074;9.158;2022-10-16T11:41:20;62450.84;;;-140.58;100.00
34177;BME280;20450;49.074;9.158;2022-10-16T11:44:03;62450.84;;;-140.58;100.00
34177;BME280;20450;49.074;9.158;2022-10-16T11:46:45;62450.84;;;-140.58;100.00
34177;BME280;20450;49.074;9.158;2022-10-16T11:49:45;62450.84;;;-140.58;100.00
34177;BME280;20450;49.074;9.158;2022-10-16T11:52:23;62450.84;;;-140.58;100.00
34177;BME280;20450;49.074;9.158;2022-10-16T11:54:59;62450.84;;;-140.58;100.00
34177;BME280;20450;49.074;9.158;2022-10-16T11:57:32;62450.84;;;-140.58;100.00
34177;BME280;20450;49.074;9.158;2022-10-16T12:00:10;62450.84;;;-140.58;100.00
34177;BME280;20450;49.074;9.158;2022-10-16T12:02:56;62450.84;;;-140.58;100.00
34177;BME280;20450;49.074;9.158;2022-10-16T12:05:52;62450.84;;;-140.58;100.00
34177;BME280;20450;49.074;9.158;2022-10-16T12:08:33;62450.84;;;-140.58;100.00
34177;BME280;20450;49.074;9.158;2022-10-16T12:11:09;62450.84;;;-140.58;100.00
34177;BME280;20450;49.074;9.158;2022-10-16T12:13:46;62450.84;;;-140.58;100.00
34177;BME280;20450;49.074;9.158;2022-10-16T12:16:23;62450.84;;;-140.58;100.00
34177;BME280;20450;49.074;9.158;2022-10-16T12:19:10;62450.84;;;-140.58;100.00
34177;BME280;20450;49.074;9.158;2022-10-16T12:21:41;62450.84;;;-140.58;100.00
34177;BME280;20450;49.074;9.158;2022-10-16T12:24:21;62450.84;;;-140.58;100.00
34177;BME280;20450;49.074;9.158;2022-10-16T12:27:05;62450.84;;;-140.58;100.00
34177;BME280;20450;49.074;9.158;2022-10-16T12:29:46;62450.84;;;-140.58;100.00
34177;BME280;20450;49.074;9.158;2022-10-16T12:32:27;62450.84;;;-140.58;100.00
34177;BME280;20450;49.074;9.158;2022-10-16T12:35:19;62450.84;;;-140.58;100.00
34177;BME280;20450;49.074;9.158;2022-10-16T12:37:51;62450.84;;;-140.58;100.00
34177;BME280;20450;49.074;9.158;2022-10-16T12:40:28;62450.84;;;-140.58;100.00
34177;BME280;20450;49.074;9.158;2022-10-16T12:42:58;62450.84;;;-140.58;100.00
34177;BME280;20450;49.074;9.158;2022-10-16T12:45:37;62450.84;;;-140.58;100.00
34177;BME280;20450;49.074;9.158;2022-10-16T12:48:18;62450.84;;;-140.58;100.00
34177;BME280;20450;49.074;9.158;2022-10-16T12:50:47;62450.84;;;-140.58;100.00
34177;BME280;20450;49.074;9.158;2022-10-16T12:53:20;62450.84;;;-140.58;100.00
34177;BME280;20450;49.074;9.158;2022-10-16T12:55:57;62450.84;;;-140.58;100.00
34177;BME280;20450;49.074;9.158;2022-10-16T12:58:44;62450.84;;;-140.58;100.00
34177;BME280;20450;49.074;9.158;2022-10-16T13:01:33;62450.84;;;-140.58;100.00
34177;BME280;20450;49.074;9.158;2022-10-16T13:04:35;62450.84;;;-140.58;100.00
34177;BME280;20450;49.074;9.158;2022-10-16T13:07:23;62450.84;;;-140.58;100.00
34177;BME280;20450;49.074;9.158;2022-10-16T13:10:11;62450.84;;;-140.58;100.00
34177;BME280;20450;49.074;9.158;2022-10-16T13:12:58;62450.84;;;-140.58;100.00
34177;BME280;20450;49.074;9.158;2022-10-16T13:15:51;62450.84;;;-140.58;100.00
34177;BME280;20450;49.074;9.158;2022-10-16T13:18:35;62450.84;;;-140.58;100.00
34177;BME280;20450;49.074;9.158;2022-10-16T13:21:22;62450.84;;;-140.58;100.00
34177;BME280;20450;49.074;9.158;2022-10-16T13:24:06;62450.84;;;-140.58;100.00
34177;BME280;20450;49.074;9.158;2022-10-16T13:26:50;62450.84;;;-140.58;100.00
34177;BME280;20450;49.074;9.158;2022-10-16T13:29:30;62450.84;;;-140.58;100.00
34177;BME280;20450;49.074;9.158;2022-10-16T13:31:58;62450.84;;;-140.58;100.00
34177;BME280;20450;49.074;9.158;2022-10-16T13:34:27;62450.84;;;-140.58;100.00
34177;BME280;20450;49.074;9.158;2022-10-16T13:36:54;62450.84;;;-140.58;100.00
34177;BME280;20450;49.074;9.158;2022-10-16T13:39:24;62450.84;;;-140.58;100.00
34177;BME280;20450;49.074;9.158;2022-10-16T13:42:04;62450.84;;;-140.58;100.00
34177;BME280;20450;49.074;9.158;2022-10-16T13:44:39;62450.84;;;-140.58;100.00
34177;BME280;20450;49.074;9.158;2022-10-16T13:47:15;62450.84;;;-140.58;100.00
34177;BME280;20450;49.074;9.158;2022-10-16T13:49:44;62450.84;;;-140.58;100.00
34177;BME280;20450;49.074;9.158;2022-10-16T13:52:19;62450.84;;;-140.58;100.00
34177;BME280;20450;49.074;9.158;2022-10-16T13:54:47;62450.84;;;-140.58;100.00
34177;BME280;20450;49.074;9.158;2022-10-16T13:57:16;62450.84;;;-140.58;100.00
34177;BME280;20450;49.074;9.158;2022-10-16T13:59:58;62450.84;;;-140.58;100.00
34177;BME280;20450;49.074;9.158;2022-10-16T14:02:27;62450.84;;;-140.58;100.00